createdAt,value
2019-02-25T00:02:28.957Z,19.73
2019-02-25T00:05:14.441Z,22.50
2019-02-25T00:08:00.556Z,20.27
2019-02-25T00:10:46.612Z,20.30
2019-02-25T00:13:32.868Z,19.93
2019-02-25T00:16:19.575Z,19.60
2019-02-25T00:19:05.367Z,21.07
2019-02-25T00:21:51.101Z,22.93
2019-02-25T00:24:37.696Z,20.13
2019-02-25T00:27:23.704Z,21.17
2019-02-25T00:30:09.744Z,19.33
2019-02-25T00:32:55.800Z,19.10
2019-02-25T00:35:42.888Z,20.33
2019-02-25T00:38:29.015Z,19.53
2019-02-25T00:41:15.113Z,19.40
2019-02-25T00:44:01.197Z,20.63
2019-02-25T00:46:47.763Z,21.43
2019-02-25T00:49:34.213Z,20.47
2019-02-25T00:52:19.951Z,20.40
2019-02-25T00:55:06.352Z,19.17
2019-02-25T00:57:52.234Z,22.77
2019-02-25T01:00:38.321Z,19.07
2019-02-25T01:03:24.631Z,18.80
2019-02-25T01:06:10.664Z,21.07
2019-02-25T01:08:56.686Z,18.83
2019-02-25T01:11:42.572Z,23.57
2019-02-25T01:14:28.974Z,19.93
2019-02-25T01:17:14.836Z,18.30
2019-02-25T01:20:00.915Z,19.07
2019-02-25T01:22:47.092Z,19.90
2019-02-25T01:25:33.093Z,18.77
2019-02-25T01:28:18.857Z,18.90
2019-02-25T01:31:05.393Z,21.63
2019-02-25T01:33:51.473Z,18.03
2019-02-25T01:36:37.659Z,17.83
2019-02-25T01:39:24.104Z,18.43
2019-02-25T01:42:10.209Z,18.87
2019-02-25T01:44:55.973Z,21.37
2019-02-25T01:47:42.432Z,20.30
2019-02-25T01:50:28.439Z,21.20
2019-02-25T01:53:14.250Z,16.10
2019-02-25T01:56:00.751Z,16.70
2019-02-25T01:58:46.609Z,21.43
2019-02-25T02:01:32.602Z,20.10
2019-02-25T02:04:18.989Z,21.37
2019-02-25T02:07:04.837Z,22.03
2019-02-25T02:09:51.136Z,18.13
2019-02-25T02:12:37.641Z,16.07
2019-02-25T02:15:23.628Z,18.93
2019-02-25T02:18:09.702Z,18.47
2019-02-25T02:20:55.876Z,21.47
2019-02-25T02:23:41.971Z,15.90
2019-02-25T02:26:28.161Z,17.23
2019-02-25T02:29:14.358Z,20.63
2019-02-25T02:32:00.339Z,20.23
2019-02-25T02:34:46.252Z,19.50
2019-02-25T02:37:32.148Z,19.40
2019-02-25T02:40:18.493Z,18.67
2019-02-25T02:43:05.014Z,19.33
2019-02-25T02:46:02.139Z,17.97
2019-02-25T02:48:51.691Z,15.90
2019-02-25T02:51:37.663Z,17.87
2019-02-25T02:54:23.424Z,16.37
2019-02-25T02:57:09.389Z,17.97
2019-02-25T02:59:55.929Z,17.70
2019-02-25T03:02:41.945Z,19.13
2019-02-25T03:05:27.757Z,17.17
2019-02-25T03:08:13.742Z,18.83
2019-02-25T03:10:59.918Z,17.50
2019-02-25T03:13:45.686Z,22.03
2019-02-25T03:16:32.217Z,19.47
2019-02-25T03:19:18.266Z,17.23
2019-02-25T03:22:04.219Z,19.50
2019-02-25T03:24:50.548Z,21.33
2019-02-25T03:27:37.193Z,18.20
2019-02-25T03:30:22.813Z,16.87
2019-02-25T03:33:09.574Z,16.30
2019-02-25T03:35:55.522Z,21.13
2019-02-25T03:38:41.461Z,17.87
2019-02-25T03:41:28.120Z,23.50
2019-02-25T03:44:14.180Z,18.73
2019-02-25T03:47:00.139Z,18.80
2019-02-25T03:49:46.454Z,14.47
2019-02-25T03:52:32.455Z,19.47
2019-02-25T03:55:18.333Z,24.23
2019-02-25T03:58:04.508Z,19.70
2019-02-25T04:00:50.632Z,18.77
2019-02-25T04:03:36.455Z,17.13
2019-02-25T04:06:22.934Z,16.57
2019-02-25T04:09:08.973Z,16.77
2019-02-25T04:11:54.925Z,17.33
2019-02-25T04:14:41.129Z,18.00
2019-02-25T04:17:26.975Z,19.20
2019-02-25T04:20:13.558Z,18.73
2019-02-25T04:22:59.788Z,18.57
2019-02-25T04:25:45.741Z,16.83
2019-02-25T04:28:31.702Z,16.50
2019-02-25T04:31:18.062Z,21.07
2019-02-25T04:34:03.990Z,22.83
2019-02-25T04:36:50.097Z,17.70
2019-02-25T04:39:36.394Z,19.03
2019-02-25T04:42:22.596Z,16.97
2019-02-25T04:45:11.350Z,19.63
2019-02-25T04:47:57.706Z,19.13
2019-02-25T04:50:43.354Z,17.17
2019-02-25T04:53:29.143Z,22.67
2019-02-25T04:56:15.600Z,15.97
2019-02-25T04:59:02.017Z,19.10
2019-02-25T05:01:47.804Z,17.63
2019-02-25T05:04:34.170Z,19.03
2019-02-25T05:07:20.022Z,15.50
2019-02-25T05:10:06.463Z,16.57
2019-02-25T05:13:00.338Z,18.20
2019-02-25T05:15:46.275Z,17.53
2019-02-25T05:18:32.325Z,15.63
2019-02-25T05:21:18.627Z,16.50
2019-02-25T05:24:04.846Z,15.80
2019-02-25T05:26:50.466Z,15.70
2019-02-25T05:29:36.701Z,17.00
2019-02-25T05:32:22.833Z,17.13
2019-02-25T05:35:09.178Z,16.07
2019-02-25T05:37:55.000Z,16.67
2019-02-25T05:40:41.633Z,17.63
2019-02-25T05:43:27.452Z,17.83
2019-02-25T05:46:13.869Z,14.60
2019-02-25T05:48:59.647Z,17.10
2019-02-25T05:51:45.519Z,14.53
2019-02-25T05:54:31.994Z,16.27
2019-02-25T05:57:17.987Z,16.97
2019-02-25T06:00:04.479Z,16.37
2019-02-25T06:02:51.129Z,20.87
2019-02-25T06:05:36.877Z,21.33
2019-02-25T06:08:22.772Z,25.27
2019-02-25T06:11:09.238Z,21.83
2019-02-25T06:13:55.374Z,18.53
2019-02-25T06:16:40.970Z,16.33
2019-02-25T06:19:28.924Z,16.13
2019-02-25T06:22:16.334Z,18.23
2019-02-25T06:25:02.122Z,21.10
2019-02-25T06:27:48.334Z,19.47
2019-02-25T06:30:34.782Z,17.20
2019-02-25T06:33:20.866Z,18.57
2019-02-25T06:36:07.143Z,20.67
2019-02-25T06:38:52.807Z,14.67
2019-02-25T06:41:38.731Z,19.43
2019-02-25T06:44:25.111Z,17.53
2019-02-25T06:47:11.015Z,19.27
2019-02-25T06:49:57.214Z,19.23
2019-02-25T06:52:43.563Z,19.23
2019-02-25T06:55:29.485Z,18.90
2019-02-25T06:58:15.498Z,21.40
2019-02-25T07:01:01.890Z,16.97
2019-02-25T07:04:07.215Z,17.90
2019-02-25T07:07:03.531Z,21.10
2019-02-25T07:10:18.014Z,16.73
2019-02-25T07:13:14.939Z,30.67
2019-02-25T07:16:18.710Z,22.80
2019-02-25T07:19:15.002Z,27.50
2019-02-25T07:22:16.073Z,26.50
2019-02-25T07:25:21.730Z,52.67
2019-02-25T07:28:36.753Z,56.97
2019-02-25T07:32:00.587Z,36.67
2019-02-25T07:34:56.907Z,30.83
2019-02-25T07:38:05.302Z,26.30
2019-02-25T07:41:09.199Z,27.57
2019-02-25T07:44:13.079Z,25.50
2019-02-25T07:47:17.079Z,21.83
2019-02-25T07:50:18.702Z,21.77
2019-02-25T07:53:18.019Z,16.87
2019-02-25T07:56:11.654Z,17.63
2019-02-25T07:59:12.201Z,14.10
2019-02-25T08:02:23.019Z,16.10
2019-02-25T08:05:46.584Z,15.80
2019-02-25T08:08:58.267Z,10.43
2019-02-25T08:12:06.579Z,11.27
2019-02-25T08:14:59.167Z,9.53
2019-02-25T08:18:10.363Z,14.00
2019-02-25T08:21:14.715Z,11.37
2019-02-25T08:24:18.675Z,10.27
2019-02-25T08:27:30.747Z,8.00
2019-02-25T08:30:42.100Z,9.07
2019-02-25T08:33:45.982Z,7.40
2019-02-25T08:37:18.063Z,7.00
2019-02-25T08:40:42.027Z,8.87
2019-02-25T08:43:35.221Z,6.80
2019-02-25T08:46:50.203Z,7.17
2019-02-25T08:50:01.768Z,7.90
2019-02-25T08:52:48.202Z,7.07
2019-02-25T08:55:37.661Z,6.90
2019-02-25T08:58:24.373Z,9.73
2019-02-25T09:01:10.420Z,5.97
2019-02-25T09:03:56.563Z,8.37
2019-02-25T09:06:42.519Z,8.63
2019-02-25T09:09:28.295Z,7.67
2019-02-25T09:12:14.690Z,7.27
2019-02-25T09:15:00.909Z,7.57
2019-02-25T09:17:47.794Z,13.93
2019-02-25T09:20:33.803Z,14.77
2019-02-25T09:23:19.774Z,8.87
2019-02-25T09:26:05.663Z,14.70
2019-02-25T09:28:52.283Z,16.80
2019-02-25T09:31:38.348Z,13.87
2019-02-25T09:34:25.077Z,12.07
2019-02-25T09:37:11.737Z,11.20
2019-02-25T09:39:57.291Z,11.50
2019-02-25T09:42:43.240Z,9.70
2019-02-25T09:45:30.463Z,12.23
2019-02-25T09:48:16.451Z,10.53
2019-02-25T09:51:02.715Z,12.57
2019-02-25T09:53:51.639Z,11.53
2019-02-25T09:59:29.223Z,12.03
2019-02-25T10:02:15.503Z,12.07
2019-02-25T10:05:01.396Z,11.40
2019-02-25T10:07:47.318Z,10.90
2019-02-25T10:10:33.416Z,11.97
2019-02-25T10:13:19.255Z,15.20
2019-02-25T10:16:05.099Z,9.37
2019-02-25T10:18:51.305Z,12.03
2019-02-25T10:21:37.340Z,10.23
2019-02-25T10:24:26.127Z,9.93
2019-02-25T10:27:12.792Z,12.23
2019-02-25T10:29:58.623Z,9.77
2019-02-25T10:32:44.592Z,12.07
2019-02-25T10:35:30.857Z,11.43
2019-02-25T10:38:16.652Z,13.03
2019-02-25T10:41:02.559Z,10.60
2019-02-25T10:43:49.995Z,10.97
2019-02-25T10:46:35.846Z,14.47
2019-02-25T10:49:22.562Z,14.20
2019-02-25T10:52:10.829Z,11.63
2019-02-25T10:54:58.283Z,10.63
2019-02-25T10:57:43.980Z,11.27
2019-02-25T11:00:30.338Z,11.53
2019-02-25T11:03:17.847Z,13.13
2019-02-25T11:06:04.391Z,14.57
2019-02-25T11:08:57.004Z,15.07
2019-02-25T11:11:42.786Z,14.37
2019-02-25T11:14:28.949Z,13.07
2019-02-25T11:17:16.158Z,11.17
2019-02-25T11:20:03.724Z,13.70
2019-02-25T11:22:50.000Z,11.53
2019-02-25T11:25:35.746Z,12.93
2019-02-25T11:28:25.365Z,15.93
2019-02-25T11:31:09.344Z,14.93
2019-02-25T11:33:56.446Z,12.70
2019-02-25T11:36:43.306Z,16.40
2019-02-25T11:39:30.118Z,13.50
2019-02-25T11:42:20.265Z,14.43
2019-02-25T11:45:05.765Z,19.10
2019-02-25T11:47:51.612Z,15.10
2019-02-25T11:50:37.533Z,13.13
2019-02-25T11:53:24.546Z,13.03
2019-02-25T11:56:10.760Z,11.87
2019-02-25T11:58:56.629Z,7.87
2019-02-25T12:01:42.201Z,7.90
2019-02-25T12:04:28.072Z,7.63
2019-02-25T12:07:13.960Z,6.30
2019-02-25T12:10:00.348Z,6.67
2019-02-25T12:12:45.939Z,6.60
2019-02-25T12:15:31.723Z,7.13
2019-02-25T12:18:17.756Z,7.13
2019-02-25T12:21:03.920Z,5.50
2019-02-25T12:23:49.672Z,6.00
2019-02-25T12:26:35.879Z,4.87
2019-02-25T12:29:21.839Z,4.70
2019-02-25T12:32:07.741Z,4.40
2019-02-25T12:34:53.649Z,5.30
2019-02-25T12:37:39.094Z,7.03
2019-02-25T12:40:24.543Z,5.93
2019-02-25T12:43:10.164Z,6.00
2019-02-25T12:45:56.084Z,7.07
2019-02-25T12:48:41.633Z,7.63
2019-02-25T12:51:27.343Z,5.80
2019-02-25T12:54:13.125Z,6.03
2019-02-25T12:56:59.304Z,6.13
2019-02-25T12:59:44.705Z,7.87
2019-02-25T13:02:30.105Z,3.90
2019-02-25T13:05:16.324Z,4.87
2019-02-25T13:08:01.870Z,5.73
2019-02-25T13:10:47.242Z,4.70
2019-02-25T13:13:32.965Z,4.10
2019-02-25T13:16:18.239Z,4.37
2019-02-25T13:19:03.581Z,4.17
2019-02-25T13:21:49.802Z,4.10
2019-02-25T13:24:37.263Z,6.77
2019-02-25T13:27:22.921Z,3.87
2019-02-25T13:30:11.554Z,3.43
2019-02-25T13:32:56.853Z,5.20
2019-02-25T13:35:42.265Z,4.60
2019-02-25T13:38:27.876Z,3.40
2019-02-25T13:41:13.499Z,3.93
2019-02-25T13:43:58.945Z,5.00
2019-02-25T13:46:44.823Z,3.67
2019-02-25T13:49:30.693Z,4.43
2019-02-25T13:52:16.089Z,7.23
2019-02-25T13:55:01.771Z,4.40
2019-02-25T13:57:47.275Z,5.93
2019-02-25T14:00:32.658Z,4.70
2019-02-25T14:03:18.550Z,4.67
2019-02-25T14:06:03.842Z,6.60
2019-02-25T14:08:49.252Z,4.37
2019-02-25T14:11:35.539Z,6.67
2019-02-25T14:14:21.090Z,4.93
2019-02-25T14:17:09.025Z,6.67
2019-02-25T14:19:54.879Z,4.17
2019-02-25T14:22:40.248Z,4.93
2019-02-25T14:25:28.414Z,10.53
2019-02-25T14:28:14.568Z,6.27
2019-02-25T14:30:59.998Z,7.53
2019-02-25T14:33:45.962Z,5.67
2019-02-25T14:36:31.534Z,7.67
2019-02-25T14:39:24.968Z,6.80
2019-02-25T14:42:11.915Z,7.33
2019-02-25T14:44:58.576Z,6.23
2019-02-25T14:47:46.720Z,6.47
2019-02-25T14:50:32.092Z,5.67
2019-02-25T14:53:17.612Z,6.30
2019-02-25T14:56:04.173Z,6.07
2019-02-25T14:58:49.790Z,5.50
2019-02-25T15:01:35.279Z,5.60
2019-02-25T15:04:20.862Z,7.57
2019-02-25T15:07:09.135Z,4.97
2019-02-25T15:09:57.938Z,6.57
2019-02-25T15:12:43.551Z,6.37
2019-02-25T15:15:31.493Z,6.67
2019-02-25T15:18:17.258Z,5.80
2019-02-25T15:21:04.737Z,8.10
2019-02-25T15:23:51.978Z,6.73
2019-02-25T15:26:42.998Z,7.73
2019-02-25T15:29:25.210Z,8.67
2019-02-25T15:32:10.502Z,7.33
2019-02-25T15:34:57.255Z,6.50
2019-02-25T15:37:44.889Z,6.20
2019-02-25T15:40:32.939Z,9.17
2019-02-25T15:43:21.286Z,6.60
2019-02-25T15:46:07.168Z,7.63
2019-02-25T15:48:52.642Z,7.00
2019-02-25T15:51:41.119Z,9.50
2019-02-25T15:54:30.878Z,7.40
2019-02-25T15:57:15.120Z,7.77
2019-02-25T16:00:00.724Z,9.83
2019-02-25T16:02:48.548Z,10.70
2019-02-25T16:05:34.764Z,9.23
2019-02-25T16:08:23.583Z,9.30
2019-02-25T16:11:09.862Z,9.60
2019-02-25T16:13:56.230Z,9.63
2019-02-25T16:16:43.342Z,10.63
2019-02-25T16:19:40.556Z,11.57
2019-02-25T16:22:16.682Z,13.47
2019-02-25T16:25:03.017Z,19.03
2019-02-25T16:27:54.281Z,14.33
2019-02-25T16:30:41.762Z,12.87
2019-02-25T16:33:28.307Z,12.60
2019-02-25T16:36:14.888Z,12.53
2019-02-25T16:39:05.241Z,15.43
2019-02-25T16:41:47.900Z,9.60
2019-02-25T16:44:33.807Z,11.23
2019-02-25T16:47:32.004Z,12.20
2019-02-25T16:50:07.505Z,10.43
2019-02-25T16:52:53.402Z,9.37
2019-02-25T16:55:40.516Z,10.50
2019-02-25T16:58:27.593Z,13.97
2019-02-25T17:01:14.118Z,17.63
2019-02-25T17:03:59.770Z,15.47
2019-02-25T17:06:45.467Z,20.57
2019-02-25T17:09:32.038Z,14.53
2019-02-25T17:12:21.089Z,17.40
2019-02-25T17:15:09.976Z,17.77
2019-02-25T17:17:58.314Z,15.03
2019-02-25T17:20:45.096Z,23.57
2019-02-25T17:23:32.311Z,18.17
2019-02-25T17:26:19.633Z,18.90
2019-02-25T17:29:05.379Z,16.40
2019-02-25T17:31:52.724Z,14.27
2019-02-25T17:34:39.390Z,15.43
2019-02-25T17:37:26.702Z,17.70
2019-02-25T17:40:13.358Z,19.03
2019-02-25T17:42:58.855Z,19.97
2019-02-25T17:45:44.838Z,18.20
2019-02-25T17:48:31.177Z,17.63
2019-02-25T17:51:18.451Z,20.57
2019-02-25T17:54:05.811Z,19.00
2019-02-25T17:56:52.002Z,14.87
2019-02-25T17:59:39.193Z,18.40
2019-02-25T18:02:29.197Z,18.37
2019-02-25T18:05:16.894Z,19.83
2019-02-25T18:08:05.328Z,23.03
2019-02-25T18:10:52.258Z,22.63
2019-02-25T18:13:39.607Z,19.07
2019-02-25T18:16:24.990Z,20.37
2019-02-25T18:19:11.708Z,25.83
2019-02-25T18:21:58.931Z,22.50
2019-02-25T18:24:44.424Z,25.33
2019-02-25T18:27:29.855Z,20.40
2019-02-25T18:30:17.135Z,24.40
2019-02-25T18:33:05.159Z,21.57
2019-02-25T18:35:50.387Z,19.37
2019-02-25T18:38:35.998Z,24.67
2019-02-25T18:41:23.171Z,22.30
2019-02-25T18:44:10.884Z,24.80
2019-02-25T18:46:56.907Z,21.83
2019-02-25T18:49:42.614Z,27.10
2019-02-25T18:52:29.561Z,32.00
2019-02-25T18:55:17.147Z,44.47
2019-02-25T18:58:05.065Z,45.83
2019-02-25T19:00:52.196Z,36.20
2019-02-25T19:03:38.650Z,47.83
2019-02-25T19:06:25.623Z,33.97
2019-02-25T19:09:22.775Z,40.03
2019-02-25T19:12:10.687Z,40.60
2019-02-25T19:14:57.679Z,39.90
2019-02-25T19:17:45.754Z,41.23
2019-02-25T19:20:31.900Z,31.77
2019-02-25T19:23:17.582Z,43.63
2019-02-25T19:26:03.220Z,37.40
2019-02-25T19:28:50.195Z,33.70
2019-02-25T19:31:36.936Z,35.73
2019-02-25T19:34:23.241Z,45.80
2019-02-25T19:37:12.046Z,40.03
2019-02-25T19:39:57.559Z,30.50
2019-02-25T19:42:47.302Z,28.37
2019-02-25T19:45:30.766Z,35.47
2019-02-25T19:48:19.242Z,29.07
2019-02-25T19:51:06.234Z,32.30
2019-02-25T19:53:51.896Z,40.73
2019-02-25T19:56:37.751Z,38.33
2019-02-25T19:59:26.853Z,35.10
2019-02-25T20:02:13.881Z,35.17
2019-02-25T20:05:00.667Z,36.90
2019-02-25T20:07:47.586Z,42.77
2019-02-25T20:10:34.133Z,41.47
2019-02-25T20:13:22.303Z,36.70
2019-02-25T20:16:20.409Z,34.67
2019-02-25T20:19:06.799Z,36.03
2019-02-25T20:21:54.613Z,36.43
2019-02-25T20:24:44.144Z,37.40
2019-02-25T20:27:30.229Z,36.17
2019-02-25T20:30:16.381Z,33.17
2019-02-25T20:33:03.319Z,35.03
2019-02-25T20:35:53.062Z,30.53
2019-02-25T20:38:37.754Z,36.37
2019-02-25T20:41:27.130Z,35.43
2019-02-25T20:44:14.453Z,35.90
2019-02-25T20:47:01.957Z,41.33
2019-02-25T20:49:51.509Z,40.13
2019-02-25T20:52:40.419Z,39.03
2019-02-25T20:55:27.673Z,39.13
2019-02-25T20:58:16.217Z,44.37
2019-02-25T21:01:05.272Z,38.37
2019-02-25T21:03:51.055Z,40.40
2019-02-25T21:06:39.180Z,38.00
2019-02-25T21:09:25.587Z,45.33
2019-02-25T21:12:13.244Z,38.80
2019-02-25T21:14:59.126Z,35.67
2019-02-25T21:17:45.288Z,33.73
2019-02-25T21:20:31.489Z,40.23
2019-02-25T21:23:17.317Z,33.90
2019-02-25T21:26:06.305Z,34.13
2019-02-25T21:28:56.055Z,31.33
2019-02-25T21:31:43.137Z,33.77
2019-02-25T21:34:29.170Z,33.97
2019-02-25T21:37:15.594Z,35.17
2019-02-25T21:40:03.388Z,34.77
2019-02-25T21:42:51.254Z,32.17
2019-02-25T21:45:36.340Z,34.60
2019-02-25T21:48:25.064Z,37.27
2019-02-25T21:51:11.868Z,35.83
2019-02-25T21:53:58.092Z,34.23
2019-02-25T21:56:44.747Z,34.57
2019-02-25T21:59:32.232Z,31.73
2019-02-25T22:02:17.683Z,29.87
2019-02-25T22:05:07.917Z,34.40
2019-02-25T22:07:54.492Z,30.33
2019-02-25T22:10:42.042Z,28.93
2019-02-25T22:13:27.906Z,27.83
2019-02-25T22:16:13.563Z,29.30
2019-02-25T22:18:58.930Z,31.30
2019-02-25T22:21:45.138Z,29.87
2019-02-25T22:24:32.081Z,27.97
2019-02-25T22:27:18.910Z,30.60
2019-02-25T22:30:09.187Z,33.17
2019-02-25T22:32:55.124Z,26.90
2019-02-25T22:35:42.482Z,27.00
2019-02-25T22:38:28.243Z,27.77
2019-02-25T22:41:13.715Z,31.13
2019-02-25T22:43:59.967Z,28.47
2019-02-25T22:46:46.783Z,28.90
2019-02-25T22:49:32.555Z,26.07
2019-02-25T22:52:21.895Z,26.87
2019-02-25T22:55:09.865Z,25.07
2019-02-25T22:57:54.242Z,29.67
2019-02-25T23:00:51.570Z,29.73
2019-02-25T23:03:40.970Z,27.90
2019-02-25T23:06:25.477Z,27.57
2019-02-25T23:09:14.145Z,26.60
2019-02-25T23:11:59.746Z,28.07
2019-02-25T23:14:45.162Z,24.30
2019-02-25T23:17:33.060Z,24.60
2019-02-25T23:20:18.217Z,27.97
2019-02-25T23:23:06.519Z,26.27
2019-02-25T23:25:53.262Z,26.17
2019-02-25T23:28:38.987Z,26.70
2019-02-25T23:31:24.848Z,25.60
2019-02-25T23:34:12.672Z,26.47
2019-02-25T23:36:57.931Z,27.33
2019-02-25T23:39:44.846Z,28.43
2019-02-25T23:42:33.000Z,27.03
2019-02-25T23:45:20.476Z,28.83
2019-02-25T23:48:06.338Z,35.17
2019-02-25T23:50:54.956Z,28.57
2019-02-25T23:53:40.502Z,30.67
2019-02-25T23:56:27.429Z,26.67
2019-02-25T23:59:14.817Z,25.47
